sensor_id;sensor_type;location;lat;lon;timestamp;P1;durP1;ratioP1;P2;durP2;ratioP2
76574;SDS011;65439;50.948;6.988;2023-04-03T00:00:29;5.53;;;4.65;;
76574;SDS011;65439;50.948;6.988;2023-04-03T00:02:55;7.40;;;4.65;;
76574;SDS011;65439;50.948;6.988;2023-04-03T00:05:20;7.13;;;5.45;;
76574;SDS011;65439;50.948;6.988;2023-04-03T00:07:45;7.13;;;5.53;;
76574;SDS011;65439;50.948;6.988;2023-04-03T00:10:11;6.00;;;4.75;;
76574;SDS011;65439;50.948;6.988;2023-04-03T00:12:37;6.55;;;4.57;;
76574;SDS011;65439;50.948;6.988;2023-04-03T00:15:02;6.10;;;5.50;;
76574;SDS011;65439;50.948;6.988;2023-04-03T00:17:28;6.22;;;4.95;;
76574;SDS011;65439;50.948;6.988;2023-04-03T00:19:53;6.87;;;5.10;;
76574;SDS011;65439;50.948;6.988;2023-04-03T00:22:18;7.50;;;4.50;;
76574;SDS011;65439;50.948;6.988;2023-04-03T00:24:43;6.20;;;5.10;;
76574;SDS011;65439;50.948;6.988;2023-04-03T00:27:09;6.40;;;4.03;;
76574;SDS011;65439;50.948;6.988;2023-04-03T00:29:36;5.30;;;4.38;;
76574;SDS011;65439;50.948;6.988;2023-04-03T00:32:01;5.57;;;4.53;;
76574;SDS011;65439;50.948;6.988;2023-04-03T00:34:26;5.20;;;4.77;;
76574;SDS011;65439;50.948;6.988;2023-04-03T00:36:51;7.47;;;4.47;;
76574;SDS011;65439;50.948;6.988;2023-04-03T00:39:17;5.30;;;4.33;;
76574;SDS011;65439;50.948;6.988;2023-04-03T00:41:42;7.00;;;4.27;;
76574;SDS011;65439;50.948;6.988;2023-04-03T00:46:58;4.25;;;3.78;;
76574;SDS011;65439;50.948;6.988;2023-04-03T00:49:23;7.38;;;3.72;;
76574;SDS011;65439;50.948;6.988;2023-04-03T00:51:48;6.33;;;4.47;;
76574;SDS011;65439;50.948;6.988;2023-04-03T00:54:14;5.18;;;4.60;;
76574;SDS011;65439;50.948;6.988;2023-04-03T00:56:40;5.13;;;4.63;;
76574;SDS011;65439;50.948;6.988;2023-04-03T00:59:08;4.53;;;4.13;;
76574;SDS011;65439;50.948;6.988;2023-04-03T01:01:36;4.78;;;4.00;;
76574;SDS011;65439;50.948;6.988;2023-04-03T01:04:02;6.75;;;5.32;;
76574;SDS011;65439;50.948;6.988;2023-04-03T01:06:29;6.07;;;3.80;;
76574;SDS011;65439;50.948;6.988;2023-04-03T01:08:57;7.68;;;5.68;;
76574;SDS011;65439;50.948;6.988;2023-04-03T01:11:23;5.82;;;4.40;;
76574;SDS011;65439;50.948;6.988;2023-04-03T01:13:48;5.53;;;3.77;;
76574;SDS011;65439;50.948;6.988;2023-04-03T01:16:14;3.90;;;3.55;;
76574;SDS011;65439;50.948;6.988;2023-04-03T01:18:40;4.80;;;4.13;;
76574;SDS011;65439;50.948;6.988;2023-04-03T01:24:08;6.63;;;3.53;;
76574;SDS011;65439;50.948;6.988;2023-04-03T01:26:40;6.90;;;4.18;;
76574;SDS011;65439;50.948;6.988;2023-04-03T01:29:06;6.60;;;4.25;;
76574;SDS011;65439;50.948;6.988;2023-04-03T01:34:00;4.68;;;4.20;;
76574;SDS011;65439;50.948;6.988;2023-04-03T01:36:27;4.95;;;4.45;;
76574;SDS011;65439;50.948;6.988;2023-04-03T01:38:54;6.88;;;5.25;;
76574;SDS011;65439;50.948;6.988;2023-04-03T01:41:21;4.88;;;4.32;;
76574;SDS011;65439;50.948;6.988;2023-04-03T01:43:47;7.50;;;5.28;;
76574;SDS011;65439;50.948;6.988;2023-04-03T01:46:13;5.15;;;4.53;;
76574;SDS011;65439;50.948;6.988;2023-04-03T01:48:39;7.22;;;5.40;;
76574;SDS011;65439;50.948;6.988;2023-04-03T01:51:05;5.07;;;4.68;;
76574;SDS011;65439;50.948;6.988;2023-04-03T01:53:30;7.70;;;5.18;;
76574;SDS011;65439;50.948;6.988;2023-04-03T01:55:55;4.77;;;4.33;;
76574;SDS011;65439;50.948;6.988;2023-04-03T01:58:21;6.00;;;5.40;;
76574;SDS011;65439;50.948;6.988;2023-04-03T02:00:46;6.13;;;5.03;;
76574;SDS011;65439;50.948;6.988;2023-04-03T02:03:11;5.95;;;4.75;;
76574;SDS011;65439;50.948;6.988;2023-04-03T02:05:37;7.28;;;5.32;;
76574;SDS011;65439;50.948;6.988;2023-04-03T02:08:02;7.20;;;5.38;;
76574;SDS011;65439;50.948;6.988;2023-04-03T02:10:28;6.05;;;4.47;;
76574;SDS011;65439;50.948;6.988;2023-04-03T02:12:53;5.78;;;4.82;;
76574;SDS011;65439;50.948;6.988;2023-04-03T02:15:19;8.73;;;5.87;;
76574;SDS011;65439;50.948;6.988;2023-04-03T02:17:44;6.47;;;4.63;;
76574;SDS011;65439;50.948;6.988;2023-04-03T02:20:09;6.07;;;5.28;;
76574;SDS011;65439;50.948;6.988;2023-04-03T02:22:35;9.57;;;5.45;;
76574;SDS011;65439;50.948;6.988;2023-04-03T02:25:01;5.97;;;4.68;;
76574;SDS011;65439;50.948;6.988;2023-04-03T02:27:26;7.20;;;6.50;;
76574;SDS011;65439;50.948;6.988;2023-04-03T02:29:52;6.95;;;5.10;;
76574;SDS011;65439;50.948;6.988;2023-04-03T02:32:17;8.77;;;5.03;;
76574;SDS011;65439;50.948;6.988;2023-04-03T02:34:42;5.50;;;4.97;;
76574;SDS011;65439;50.948;6.988;2023-04-03T02:37:07;5.30;;;4.90;;
76574;SDS011;65439;50.948;6.988;2023-04-03T02:39:33;7.88;;;5.15;;
76574;SDS011;65439;50.948;6.988;2023-04-03T02:41:58;8.88;;;5.20;;
76574;SDS011;65439;50.948;6.988;2023-04-03T02:44:24;6.67;;;5.97;;
76574;SDS011;65439;50.948;6.988;2023-04-03T02:46:49;5.75;;;5.03;;
76574;SDS011;65439;50.948;6.988;2023-04-03T02:49:15;7.30;;;5.45;;
76574;SDS011;65439;50.948;6.988;2023-04-03T02:51:41;9.85;;;5.82;;
76574;SDS011;65439;50.948;6.988;2023-04-03T02:54:07;6.37;;;4.47;;
76574;SDS011;65439;50.948;6.988;2023-04-03T02:56:32;6.97;;;5.65;;
76574;SDS011;65439;50.948;6.988;2023-04-03T02:58:58;6.00;;;5.00;;
76574;SDS011;65439;50.948;6.988;2023-04-03T03:01:23;5.17;;;4.67;;
76574;SDS011;65439;50.948;6.988;2023-04-03T03:03:49;9.52;;;4.65;;
76574;SDS011;65439;50.948;6.988;2023-04-03T03:06:15;6.85;;;4.50;;
76574;SDS011;65439;50.948;6.988;2023-04-03T03:08:41;6.00;;;5.32;;
76574;SDS011;65439;50.948;6.988;2023-04-03T03:11:07;6.20;;;4.68;;
76574;SDS011;65439;50.948;6.988;2023-04-03T03:13:32;6.10;;;4.65;;
76574;SDS011;65439;50.948;6.988;2023-04-03T03:15:58;8.32;;;5.20;;
76574;SDS011;65439;50.948;6.988;2023-04-03T03:18:23;6.72;;;5.53;;
76574;SDS011;65439;50.948;6.988;2023-04-03T03:20:52;7.10;;;5.30;;
76574;SDS011;65439;50.948;6.988;2023-04-03T03:23:22;7.35;;;4.90;;
76574;SDS011;65439;50.948;6.988;2023-04-03T03:25:48;3.75;;;3.45;;
76574;SDS011;65439;50.948;6.988;2023-04-03T03:28:13;4.23;;;3.67;;
76574;SDS011;65439;50.948;6.988;2023-04-03T03:30:38;5.90;;;4.67;;
76574;SDS011;65439;50.948;6.988;2023-04-03T03:33:03;3.10;;;2.80;;
76574;SDS011;65439;50.948;6.988;2023-04-03T03:35:29;9.80;;;5.30;;
76574;SDS011;65439;50.948;6.988;2023-04-03T03:37:54;7.95;;;4.20;;
76574;SDS011;65439;50.948;6.988;2023-04-03T03:40:20;5.70;;;3.97;;
76574;SDS011;65439;50.948;6.988;2023-04-03T03:42:45;4.47;;;4.03;;
76574;SDS011;65439;50.948;6.988;2023-04-03T03:45:10;4.50;;;4.07;;
76574;SDS011;65439;50.948;6.988;2023-04-03T03:47:35;7.83;;;4.00;;
76574;SDS011;65439;50.948;6.988;2023-04-03T03:50:01;7.10;;;4.33;;
76574;SDS011;65439;50.948;6.988;2023-04-03T03:52:27;3.70;;;3.25;;
76574;SDS011;65439;50.948;6.988;2023-04-03T03:54:52;5.20;;;4.07;;
76574;SDS011;65439;50.948;6.988;2023-04-03T03:57:17;4.90;;;4.13;;
76574;SDS011;65439;50.948;6.988;2023-04-03T03:59:43;8.93;;;4.60;;
76574;SDS011;65439;50.948;6.988;2023-04-03T04:02:09;4.15;;;3.78;;
76574;SDS011;65439;50.948;6.988;2023-04-03T04:04:34;6.72;;;4.53;;
76574;SDS011;65439;50.948;6.988;2023-04-03T04:07:00;5.40;;;3.57;;
76574;SDS011;65439;50.948;6.988;2023-04-03T04:09:25;5.07;;;4.15;;
76574;SDS011;65439;50.948;6.988;2023-04-03T04:11:51;5.75;;;4.43;;
76574;SDS011;65439;50.948;6.988;2023-04-03T04:14:16;5.60;;;5.10;;
76574;SDS011;65439;50.948;6.988;2023-04-03T04:16:41;7.93;;;3.77;;
76574;SDS011;65439;50.948;6.988;2023-04-03T04:19:07;7.63;;;4.50;;
76574;SDS011;65439;50.948;6.988;2023-04-03T04:21:32;7.10;;;4.25;;
76574;SDS011;65439;50.948;6.988;2023-04-03T04:23:57;5.07;;;3.97;;
76574;SDS011;65439;50.948;6.988;2023-04-03T04:26:23;5.50;;;4.00;;
76574;SDS011;65439;50.948;6.988;2023-04-03T04:28:49;5.30;;;4.00;;
76574;SDS011;65439;50.948;6.988;2023-04-03T04:31:14;5.47;;;3.57;;
76574;SDS011;65439;50.948;6.988;2023-04-03T04:33:39;4.27;;;3.33;;
76574;SDS011;65439;50.948;6.988;2023-04-03T04:36:05;4.10;;;3.60;;
76574;SDS011;65439;50.948;6.988;2023-04-03T04:38:30;6.78;;;3.33;;
76574;SDS011;65439;50.948;6.988;2023-04-03T04:40:55;4.07;;;3.30;;
76574;SDS011;65439;50.948;6.988;2023-04-03T04:43:21;5.40;;;3.93;;
76574;SDS011;65439;50.948;6.988;2023-04-03T04:45:46;4.43;;;2.80;;
76574;SDS011;65439;50.948;6.988;2023-04-03T04:48:11;4.93;;;3.70;;
76574;SDS011;65439;50.948;6.988;2023-04-03T04:50:37;6.70;;;3.88;;
76574;SDS011;65439;50.948;6.988;2023-04-03T04:53:02;6.43;;;3.90;;
76574;SDS011;65439;50.948;6.988;2023-04-03T04:55:29;4.72;;;3.70;;
76574;SDS011;65439;50.948;6.988;2023-04-03T04:57:54;4.33;;;3.47;;
76574;SDS011;65439;50.948;6.988;2023-04-03T05:00:19;5.90;;;4.50;;
76574;SDS011;65439;50.948;6.988;2023-04-03T05:02:45;4.40;;;3.28;;
76574;SDS011;65439;50.948;6.988;2023-04-03T05:05:10;4.07;;;3.33;;
76574;SDS011;65439;50.948;6.988;2023-04-03T05:07:35;6.27;;;3.63;;
76574;SDS011;65439;50.948;6.988;2023-04-03T05:10:01;3.87;;;3.50;;
76574;SDS011;65439;50.948;6.988;2023-04-03T05:12:27;4.60;;;3.40;;
76574;SDS011;65439;50.948;6.988;2023-04-03T05:14:53;3.60;;;2.50;;
76574;SDS011;65439;50.948;6.988;2023-04-03T05:17:18;5.90;;;3.23;;
76574;SDS011;65439;50.948;6.988;2023-04-03T05:19:43;5.60;;;2.73;;
76574;SDS011;65439;50.948;6.988;2023-04-03T05:22:09;8.10;;;4.83;;
76574;SDS011;65439;50.948;6.988;2023-04-03T05:24:34;3.47;;;2.50;;
76574;SDS011;65439;50.948;6.988;2023-04-03T05:26:59;5.80;;;3.40;;
76574;SDS011;65439;50.948;6.988;2023-04-03T05:29:25;3.17;;;2.87;;
76574;SDS011;65439;50.948;6.988;2023-04-03T05:31:50;3.77;;;3.30;;
76574;SDS011;65439;50.948;6.988;2023-04-03T05:34:16;3.65;;;3.30;;
76574;SDS011;65439;50.948;6.988;2023-04-03T05:36:41;5.60;;;3.60;;
76574;SDS011;65439;50.948;6.988;2023-04-03T05:39:07;7.53;;;3.42;;
76574;SDS011;65439;50.948;6.988;2023-04-03T05:41:32;4.35;;;3.95;;
76574;SDS011;65439;50.948;6.988;2023-04-03T05:44:00;4.72;;;3.22;;
76574;SDS011;65439;50.948;6.988;2023-04-03T05:46:26;5.13;;;3.40;;
76574;SDS011;65439;50.948;6.988;2023-04-03T05:48:51;4.82;;;3.45;;
76574;SDS011;65439;50.948;6.988;2023-04-03T05:51:18;4.15;;;2.90;;
76574;SDS011;65439;50.948;6.988;2023-04-03T05:53:45;7.07;;;2.97;;
76574;SDS011;65439;50.948;6.988;2023-04-03T05:56:10;5.45;;;2.97;;
76574;SDS011;65439;50.948;6.988;2023-04-03T05:58:36;4.18;;;3.00;;
76574;SDS011;65439;50.948;6.988;2023-04-03T06:01:04;8.07;;;3.75;;
76574;SDS011;65439;50.948;6.988;2023-04-03T06:03:30;3.40;;;2.90;;
76574;SDS011;65439;50.948;6.988;2023-04-03T06:05:56;8.70;;;4.03;;
76574;SDS011;65439;50.948;6.988;2023-04-03T06:08:21;5.00;;;3.20;;
76574;SDS011;65439;50.948;6.988;2023-04-03T06:10:46;5.20;;;3.35;;
76574;SDS011;65439;50.948;6.988;2023-04-03T06:13:12;3.13;;;2.53;;
76574;SDS011;65439;50.948;6.988;2023-04-03T06:15:38;4.10;;;3.10;;
76574;SDS011;65439;50.948;6.988;2023-04-03T06:18:04;3.53;;;3.13;;
76574;SDS011;65439;50.948;6.988;2023-04-03T06:20:30;4.53;;;2.65;;
76574;SDS011;65439;50.948;6.988;2023-04-03T06:22:56;4.55;;;3.08;;
76574;SDS011;65439;50.948;6.988;2023-04-03T06:25:21;3.38;;;2.70;;
76574;SDS011;65439;50.948;6.988;2023-04-03T06:27:46;4.47;;;3.55;;
76574;SDS011;65439;50.948;6.988;2023-04-03T06:30:12;3.77;;;2.60;;
76574;SDS011;65439;50.948;6.988;2023-04-03T06:32:37;6.25;;;3.40;;
76574;SDS011;65439;50.948;6.988;2023-04-03T06:35:04;4.55;;;3.00;;
76574;SDS011;65439;50.948;6.988;2023-04-03T06:39:55;3.28;;;2.90;;
76574;SDS011;65439;50.948;6.988;2023-04-03T06:42:21;4.40;;;2.63;;
76574;SDS011;65439;50.948;6.988;2023-04-03T06:44:46;4.07;;;2.60;;
76574;SDS011;65439;50.948;6.988;2023-04-03T06:47:16;3.45;;;2.65;;
76574;SDS011;65439;50.948;6.988;2023-04-03T06:49:41;5.90;;;2.88;;
76574;SDS011;65439;50.948;6.988;2023-04-03T06:52:07;3.97;;;2.53;;
76574;SDS011;65439;50.948;6.988;2023-04-03T06:54:33;4.72;;;2.42;;
76574;SDS011;65439;50.948;6.988;2023-04-03T06:56:58;3.63;;;2.35;;
76574;SDS011;65439;50.948;6.988;2023-04-03T06:59:24;3.15;;;2.65;;
76574;SDS011;65439;50.948;6.988;2023-04-03T07:01:49;6.78;;;2.70;;
76574;SDS011;65439;50.948;6.988;2023-04-03T07:04:15;4.15;;;3.08;;
76574;SDS011;65439;50.948;6.988;2023-04-03T07:06:41;5.35;;;2.53;;
76574;SDS011;65439;50.948;6.988;2023-04-03T07:09:07;3.15;;;2.08;;
76574;SDS011;65439;50.948;6.988;2023-04-03T07:11:33;9.07;;;2.63;;
76574;SDS011;65439;50.948;6.988;2023-04-03T07:13:58;3.13;;;1.83;;
76574;SDS011;65439;50.948;6.988;2023-04-03T07:16:23;3.35;;;2.40;;
76574;SDS011;65439;50.948;6.988;2023-04-03T07:18:49;2.65;;;1.70;;
76574;SDS011;65439;50.948;6.988;2023-04-03T07:21:15;5.50;;;2.85;;
76574;SDS011;65439;50.948;6.988;2023-04-03T07:23:40;5.77;;;2.30;;
76574;SDS011;65439;50.948;6.988;2023-04-03T07:26:05;4.80;;;2.60;;
76574;SDS011;65439;50.948;6.988;2023-04-03T07:28:31;3.78;;;2.53;;
76574;SDS011;65439;50.948;6.988;2023-04-03T07:31:01;4.40;;;2.42;;
76574;SDS011;65439;50.948;6.988;2023-04-03T07:33:28;3.28;;;2.35;;
76574;SDS011;65439;50.948;6.988;2023-04-03T07:35:53;5.20;;;2.58;;
76574;SDS011;65439;50.948;6.988;2023-04-03T07:38:19;4.75;;;2.17;;
76574;SDS011;65439;50.948;6.988;2023-04-03T07:40:48;4.38;;;2.40;;
76574;SDS011;65439;50.948;6.988;2023-04-03T07:43:14;2.17;;;1.85;;
76574;SDS011;65439;50.948;6.988;2023-04-03T07:45:40;3.45;;;2.50;;
76574;SDS011;65439;50.948;6.988;2023-04-03T07:48:05;3.10;;;2.03;;
76574;SDS011;65439;50.948;6.988;2023-04-03T07:50:31;4.60;;;2.58;;
76574;SDS011;65439;50.948;6.988;2023-04-03T07:52:57;4.40;;;2.17;;
76574;SDS011;65439;50.948;6.988;2023-04-03T07:55:22;3.70;;;2.45;;
76574;SDS011;65439;50.948;6.988;2023-04-03T07:57:48;4.00;;;2.55;;
76574;SDS011;65439;50.948;6.988;2023-04-03T08:00:14;3.83;;;2.33;;
76574;SDS011;65439;50.948;6.988;2023-04-03T08:02:39;6.65;;;2.78;;
76574;SDS011;65439;50.948;6.988;2023-04-03T08:05:05;2.88;;;2.28;;
76574;SDS011;65439;50.948;6.988;2023-04-03T08:07:30;3.08;;;1.95;;
76574;SDS011;65439;50.948;6.988;2023-04-03T08:09:55;6.60;;;2.23;;
76574;SDS011;65439;50.948;6.988;2023-04-03T08:12:21;2.80;;;2.00;;
76574;SDS011;65439;50.948;6.988;2023-04-03T08:14:47;2.07;;;1.67;;
76574;SDS011;65439;50.948;6.988;2023-04-03T08:17:12;1.97;;;1.60;;
76574;SDS011;65439;50.948;6.988;2023-04-03T08:19:38;2.93;;;1.80;;
76574;SDS011;65439;50.948;6.988;2023-04-03T08:22:04;4.57;;;1.88;;
76574;SDS011;65439;50.948;6.988;2023-04-03T08:24:30;3.85;;;2.38;;
76574;SDS011;65439;50.948;6.988;2023-04-03T08:26:56;4.60;;;2.28;;
76574;SDS011;65439;50.948;6.988;2023-04-03T08:29:21;7.50;;;2.42;;
76574;SDS011;65439;50.948;6.988;2023-04-03T08:31:46;2.97;;;1.70;;
76574;SDS011;65439;50.948;6.988;2023-04-03T08:34:13;3.25;;;1.95;;
76574;SDS011;65439;50.948;6.988;2023-04-03T08:36:39;2.78;;;1.73;;
76574;SDS011;65439;50.948;6.988;2023-04-03T08:39:05;6.32;;;2.08;;
76574;SDS011;65439;50.948;6.988;2023-04-03T08:41:34;3.60;;;1.77;;
76574;SDS011;65439;50.948;6.988;2023-04-03T08:44:12;5.57;;;2.58;;
76574;SDS011;65439;50.948;6.988;2023-04-03T08:49:30;5.38;;;2.03;;
76574;SDS011;65439;50.948;6.988;2023-04-03T08:52:08;2.40;;;2.10;;
76574;SDS011;65439;50.948;6.988;2023-04-03T08:54:52;3.05;;;2.35;;
76574;SDS011;65439;50.948;6.988;2023-04-03T08:57:23;2.55;;;1.42;;
76574;SDS011;65439;50.948;6.988;2023-04-03T08:59:53;1.60;;;1.33;;
76574;SDS011;65439;50.948;6.988;2023-04-03T09:02:23;5.60;;;2.40;;
76574;SDS011;65439;50.948;6.988;2023-04-03T09:04:51;4.00;;;1.60;;
76574;SDS011;65439;50.948;6.988;2023-04-03T09:07:20;2.35;;;2.15;;
76574;SDS011;65439;50.948;6.988;2023-04-03T09:09:49;2.60;;;2.00;;
76574;SDS011;65439;50.948;6.988;2023-04-03T09:12:21;2.15;;;1.75;;
76574;SDS011;65439;50.948;6.988;2023-04-03T09:15:10;3.47;;;1.70;;
76574;SDS011;65439;50.948;6.988;2023-04-03T09:20:46;4.70;;;3.13;;
76574;SDS011;65439;50.948;6.988;2023-04-03T09:23:25;5.10;;;3.05;;
76574;SDS011;65439;50.948;6.988;2023-04-03T09:26:05;4.05;;;2.75;;
76574;SDS011;65439;50.948;6.988;2023-04-03T09:28:35;3.45;;;1.90;;
76574;SDS011;65439;50.948;6.988;2023-04-03T09:31:06;2.83;;;1.90;;
76574;SDS011;65439;50.948;6.988;2023-04-03T09:33:43;4.63;;;2.58;;
76574;SDS011;65439;50.948;6.988;2023-04-03T09:36:08;3.08;;;1.70;;
76574;SDS011;65439;50.948;6.988;2023-04-03T09:38:33;2.33;;;1.57;;
76574;SDS011;65439;50.948;6.988;2023-04-03T09:41:06;5.63;;;2.50;;
76574;SDS011;65439;50.948;6.988;2023-04-03T09:43:37;5.20;;;2.53;;
76574;SDS011;65439;50.948;6.988;2023-04-03T09:46:46;3.95;;;2.22;;
76574;SDS011;65439;50.948;6.988;2023-04-03T09:48:59;1.92;;;1.73;;
76574;SDS011;65439;50.948;6.988;2023-04-03T09:51:26;5.40;;;2.25;;
76574;SDS011;65439;50.948;6.988;2023-04-03T09:53:53;2.75;;;2.17;;
76574;SDS011;65439;50.948;6.988;2023-04-03T09:56:19;2.20;;;1.85;;
76574;SDS011;65439;50.948;6.988;2023-04-03T10:01:35;2.03;;;1.70;;
76574;SDS011;65439;50.948;6.988;2023-04-03T10:04:15;4.25;;;2.03;;
76574;SDS011;65439;50.948;6.988;2023-04-03T10:06:43;2.40;;;2.03;;
76574;SDS011;65439;50.948;6.988;2023-04-03T10:14:27;2.72;;;1.88;;
76574;SDS011;65439;50.948;6.988;2023-04-03T10:19:56;2.58;;;1.65;;
76574;SDS011;65439;50.948;6.988;2023-04-03T10:25:02;2.22;;;1.63;;
76574;SDS011;65439;50.948;6.988;2023-04-03T10:27:42;2.97;;;1.85;;
76574;SDS011;65439;50.948;6.988;2023-04-03T10:38:13;4.85;;;1.92;;
76574;SDS011;65439;50.948;6.988;2023-04-03T10:41:04;5.00;;;1.95;;
76574;SDS011;65439;50.948;6.988;2023-04-03T10:43:43;1.73;;;1.50;;
76574;SDS011;65439;50.948;6.988;2023-04-03T10:54:38;3.05;;;1.92;;
76574;SDS011;65439;50.948;6.988;2023-04-03T10:57:06;1.60;;;1.50;;
76574;SDS011;65439;50.948;6.988;2023-04-03T10:59:37;1.63;;;1.52;;
76574;SDS011;65439;50.948;6.988;2023-04-03T11:02:05;1.77;;;1.60;;
76574;SDS011;65439;50.948;6.988;2023-04-03T11:04:34;2.17;;;1.70;;
76574;SDS011;65439;50.948;6.988;2023-04-03T11:07:04;3.35;;;1.77;;
76574;SDS011;65439;50.948;6.988;2023-04-03T11:09:35;2.42;;;1.35;;
76574;SDS011;65439;50.948;6.988;2023-04-03T11:12:06;2.15;;;1.55;;
76574;SDS011;65439;50.948;6.988;2023-04-03T11:14:40;3.05;;;1.90;;
76574;SDS011;65439;50.948;6.988;2023-04-03T11:18:09;2.75;;;1.33;;
76574;SDS011;65439;50.948;6.988;2023-04-03T11:22:35;1.70;;;1.42;;
76574;SDS011;65439;50.948;6.988;2023-04-03T11:25:09;1.65;;;1.42;;
76574;SDS011;65439;50.948;6.988;2023-04-03T11:27:47;3.53;;;1.50;;
76574;SDS011;65439;50.948;6.988;2023-04-03T11:30:18;1.83;;;1.67;;
76574;SDS011;65439;50.948;6.988;2023-04-03T11:33:01;3.67;;;2.15;;
76574;SDS011;65439;50.948;6.988;2023-04-03T11:35:28;2.75;;;1.73;;
76574;SDS011;65439;50.948;6.988;2023-04-03T11:37:54;2.95;;;1.80;;
76574;SDS011;65439;50.948;6.988;2023-04-03T11:47:56;1.45;;;1.35;;
76574;SDS011;65439;50.948;6.988;2023-04-03T11:53:48;2.55;;;1.70;;
76574;SDS011;65439;50.948;6.988;2023-04-03T11:58:29;4.10;;;1.80;;
76574;SDS011;65439;50.948;6.988;2023-04-03T12:00:55;3.67;;;1.90;;
76574;SDS011;65439;50.948;6.988;2023-04-03T12:05:52;1.67;;;1.55;;
76574;SDS011;65439;50.948;6.988;2023-04-03T12:08:25;3.85;;;1.75;;
76574;SDS011;65439;50.948;6.988;2023-04-03T12:16:29;2.30;;;1.83;;
76574;SDS011;65439;50.948;6.988;2023-04-03T12:19:03;2.13;;;1.40;;
76574;SDS011;65439;50.948;6.988;2023-04-03T12:24:01;4.43;;;2.33;;
76574;SDS011;65439;50.948;6.988;2023-04-03T12:26:30;2.78;;;1.75;;
76574;SDS011;65439;50.948;6.988;2023-04-03T12:28:56;3.15;;;1.83;;
76574;SDS011;65439;50.948;6.988;2023-04-03T12:31:22;3.13;;;1.83;;
76574;SDS011;65439;50.948;6.988;2023-04-03T12:33:57;2.55;;;1.70;;
76574;SDS011;65439;50.948;6.988;2023-04-03T12:36:29;2.08;;;1.58;;
76574;SDS011;65439;50.948;6.988;2023-04-03T12:41:56;2.28;;;1.88;;
76574;SDS011;65439;50.948;6.988;2023-04-03T12:44:35;3.45;;;2.03;;
76574;SDS011;65439;50.948;6.988;2023-04-03T12:47:25;2.03;;;1.55;;
76574;SDS011;65439;50.948;6.988;2023-04-03T12:49:53;2.83;;;1.77;;
76574;SDS011;65439;50.948;6.988;2023-04-03T12:52:31;2.63;;;2.03;;
76574;SDS011;65439;50.948;6.988;2023-04-03T12:55:00;4.95;;;1.80;;
76574;SDS011;65439;50.948;6.988;2023-04-03T12:57:29;1.65;;;1.30;;
76574;SDS011;65439;50.948;6.988;2023-04-03T12:59:55;4.32;;;2.08;;
76574;SDS011;65439;50.948;6.988;2023-04-03T13:02:31;3.00;;;1.80;;
76574;SDS011;65439;50.948;6.988;2023-04-03T13:04:59;2.78;;;1.70;;
76574;SDS011;65439;50.948;6.988;2023-04-03T13:07:32;3.22;;;1.55;;
76574;SDS011;65439;50.948;6.988;2023-04-03T13:12:55;1.88;;;1.25;;
76574;SDS011;65439;50.948;6.988;2023-04-03T13:15:25;2.97;;;1.98;;
76574;SDS011;65439;50.948;6.988;2023-04-03T13:17:52;2.85;;;1.90;;
76574;SDS011;65439;50.948;6.988;2023-04-03T13:22:55;3.80;;;2.33;;
76574;SDS011;65439;50.948;6.988;2023-04-03T13:25:23;3.35;;;1.63;;
76574;SDS011;65439;50.948;6.988;2023-04-03T13:27:49;2.15;;;1.95;;
76574;SDS011;65439;50.948;6.988;2023-04-03T13:30:26;2.40;;;1.73;;
76574;SDS011;65439;50.948;6.988;2023-04-03T13:32:55;2.00;;;1.38;;
76574;SDS011;65439;50.948;6.988;2023-04-03T13:35:32;2.03;;;1.67;;
76574;SDS011;65439;50.948;6.988;2023-04-03T13:38:02;2.47;;;1.75;;
76574;SDS011;65439;50.948;6.988;2023-04-03T13:40:31;2.67;;;1.77;;
76574;SDS011;65439;50.948;6.988;2023-04-03T13:43:04;2.33;;;1.70;;
76574;SDS011;65439;50.948;6.988;2023-04-03T13:45:32;1.63;;;1.52;;
76574;SDS011;65439;50.948;6.988;2023-04-03T13:51:01;3.00;;;1.70;;
76574;SDS011;65439;50.948;6.988;2023-04-03T13:53:31;3.67;;;2.20;;
76574;SDS011;65439;50.948;6.988;2023-04-03T13:58:29;2.00;;;1.80;;
76574;SDS011;65439;50.948;6.988;2023-04-03T14:00:59;3.08;;;1.90;;
76574;SDS011;65439;50.948;6.988;2023-04-03T14:03:28;1.77;;;1.65;;
76574;SDS011;65439;50.948;6.988;2023-04-03T14:05:53;2.53;;;1.98;;
76574;SDS011;65439;50.948;6.988;2023-04-03T14:08:19;2.33;;;1.90;;
76574;SDS011;65439;50.948;6.988;2023-04-03T14:10:45;2.22;;;1.88;;
76574;SDS011;65439;50.948;6.988;2023-04-03T14:13:15;2.95;;;2.22;;
76574;SDS011;65439;50.948;6.988;2023-04-03T14:15:42;4.32;;;1.80;;
76574;SDS011;65439;50.948;6.988;2023-04-03T14:18:14;2.38;;;1.95;;
76574;SDS011;65439;50.948;6.988;2023-04-03T14:20:41;3.95;;;1.95;;
76574;SDS011;65439;50.948;6.988;2023-04-03T14:23:06;2.80;;;1.98;;
76574;SDS011;65439;50.948;6.988;2023-04-03T14:25:32;3.20;;;2.20;;
76574;SDS011;65439;50.948;6.988;2023-04-03T14:27:57;2.42;;;1.80;;
76574;SDS011;65439;50.948;6.988;2023-04-03T14:30:31;2.72;;;2.33;;
76574;SDS011;65439;50.948;6.988;2023-04-03T14:32:59;2.53;;;2.13;;
76574;SDS011;65439;50.948;6.988;2023-04-03T14:35:25;3.50;;;2.20;;
76574;SDS011;65439;50.948;6.988;2023-04-03T14:37:51;2.58;;;2.17;;
76574;SDS011;65439;50.948;6.988;2023-04-03T14:42:46;4.13;;;2.05;;
76574;SDS011;65439;50.948;6.988;2023-04-03T14:45:13;1.95;;;1.45;;
76574;SDS011;65439;50.948;6.988;2023-04-03T14:47:40;2.67;;;2.08;;
76574;SDS011;65439;50.948;6.988;2023-04-03T14:50:12;2.80;;;2.00;;
76574;SDS011;65439;50.948;6.988;2023-04-03T14:52:41;2.58;;;2.00;;
76574;SDS011;65439;50.948;6.988;2023-04-03T14:55:07;3.30;;;2.13;;
76574;SDS011;65439;50.948;6.988;2023-04-03T14:57:33;5.95;;;2.00;;
76574;SDS011;65439;50.948;6.988;2023-04-03T14:59:59;2.70;;;1.88;;
76574;SDS011;65439;50.948;6.988;2023-04-03T15:04:55;4.63;;;2.05;;
76574;SDS011;65439;50.948;6.988;2023-04-03T15:07:21;4.82;;;1.80;;
76574;SDS011;65439;50.948;6.988;2023-04-03T15:09:46;2.65;;;1.88;;
76574;SDS011;65439;50.948;6.988;2023-04-03T15:12:12;3.45;;;1.90;;
76574;SDS011;65439;50.948;6.988;2023-04-03T15:14:37;3.73;;;2.13;;
76574;SDS011;65439;50.948;6.988;2023-04-03T15:17:06;2.73;;;1.73;;
76574;SDS011;65439;50.948;6.988;2023-04-03T15:19:35;2.80;;;2.25;;
76574;SDS011;65439;50.948;6.988;2023-04-03T15:22:02;4.00;;;1.63;;
76574;SDS011;65439;50.948;6.988;2023-04-03T15:24:27;3.90;;;2.07;;
76574;SDS011;65439;50.948;6.988;2023-04-03T15:26:52;4.70;;;2.03;;
76574;SDS011;65439;50.948;6.988;2023-04-03T15:29:17;2.80;;;1.73;;
76574;SDS011;65439;50.948;6.988;2023-04-03T15:31:43;3.30;;;2.23;;
76574;SDS011;65439;50.948;6.988;2023-04-03T15:34:08;3.70;;;2.23;;
76574;SDS011;65439;50.948;6.988;2023-04-03T15:36:33;5.78;;;2.00;;
76574;SDS011;65439;50.948;6.988;2023-04-03T15:38:59;4.72;;;2.05;;
76574;SDS011;65439;50.948;6.988;2023-04-03T15:41:24;3.63;;;2.33;;
76574;SDS011;65439;50.948;6.988;2023-04-03T15:43:50;3.35;;;2.08;;
76574;SDS011;65439;50.948;6.988;2023-04-03T15:46:15;2.87;;;2.03;;
76574;SDS011;65439;50.948;6.988;2023-04-03T15:48:41;3.50;;;2.35;;
76574;SDS011;65439;50.948;6.988;2023-04-03T15:51:06;6.22;;;1.83;;
76574;SDS011;65439;50.948;6.988;2023-04-03T15:53:31;3.75;;;2.83;;
76574;SDS011;65439;50.948;6.988;2023-04-03T15:55:57;3.27;;;1.97;;
76574;SDS011;65439;50.948;6.988;2023-04-03T15:58:22;3.27;;;1.97;;
76574;SDS011;65439;50.948;6.988;2023-04-03T16:00:47;5.00;;;2.87;;
76574;SDS011;65439;50.948;6.988;2023-04-03T16:03:17;3.43;;;2.40;;
76574;SDS011;65439;50.948;6.988;2023-04-03T16:05:43;3.40;;;1.92;;
76574;SDS011;65439;50.948;6.988;2023-04-03T16:08:09;2.97;;;1.80;;
76574;SDS011;65439;50.948;6.988;2023-04-03T16:10:35;4.05;;;1.73;;
76574;SDS011;65439;50.948;6.988;2023-04-03T16:13:01;4.07;;;2.70;;
76574;SDS011;65439;50.948;6.988;2023-04-03T16:15:26;4.88;;;2.22;;
76574;SDS011;65439;50.948;6.988;2023-04-03T16:17:52;3.75;;;1.85;;
76574;SDS011;65439;50.948;6.988;2023-04-03T16:20:18;3.60;;;1.55;;